tititudorancea.com
Station Historical Data
Daily Summary for December 7, 2018 Units:  English    Metric   Both
« Previous Day
Next Day »
Daily Weekly Monthly Yearly Custom
  High: Low: Average:
Temperature: TemperatureF °F 66.4 °F 84.8 °F
Dew Point: DewpointF °F 40.8 °F 47.4 °F
Humidity: Humidity % 14 % 29 %
Wind Speed: WindSpeedMPH mph 0 mph 11.2 mph
Wind Gust: WindSpeedGustMPH mph - -
Wind:- - WNW
Pressure: PressureIn in 29.72 in -
Precipitation: 0 in    
Historical Graphs
 
 
Ararat weather Find more about Weather in Ararat, AU


 



 


Tabular Data for December 7, 2018
Time Temperature Dew Point Pressure Wind Wind Speed Wind Gust Humidity Rainfall Rate (Hourly)
TemperatureF °F DewpointF °F PressureIn in Calm     Humidity % HourlyPrecipIn in
00:04 70.3 °F 46.7 °F 29.83 in Calm     43 % 0 in
00:09 70 °F 46.5 °F 29.83 in Calm     43 % 0 in
00:14 69.7 °F 47.4 °F 29.83 in Calm     45 % 0 in
00:19 69.4 °F 47.7 °F 29.83 in Calm     46 % 0 in
00:24 69.1 °F 48 °F 29.83 in Calm     47 % 0 in
00:29 69.1 °F 47.4 °F 29.83 in Calm     46 % 0 in
00:34 69.3 °F 48.2 °F 29.83 in North 2.3 mph 2.3 mph 47 % 0 in
00:39 69.3 °F 47.6 °F 29.83 in NNW 3.5 mph 1.8 mph 46 % 0 in
00:44 69.4 °F 47.7 °F 29.82 in Calm     46 % 0 in
00:49 69.6 °F 48.5 °F 29.83 in Calm     47 % 0 in
00:54 69.6 °F 48.5 °F 29.82 in NNW 2.3 mph 0.3 mph 47 % 0 in
00:59 69.4 °F 48.9 °F 29.82 in Calm     48 % 0 in
01:04 68.9 °F 48.4 °F 29.82 in NNW 1.2 mph 1.3 mph 48 % 0 in
01:09 68.8 °F 48.3 °F 29.82 in Calm   0.3 mph 48 % 0 in
01:14 68.7 °F 48.8 °F 29.82 in Calm     49 % 0 in
01:19 68.5 °F 48.6 °F 29.82 in Calm     49 % 0 in
01:24 68 °F 48.7 °F 29.82 in Calm     50 % 0 in
01:29 67.8 °F 48.5 °F 29.82 in Calm     50 % 0 in
01:34 67.4 °F 48.6 °F 29.82 in Calm     51 % 0 in
01:39 67.1 °F 48.4 °F 29.82 in Calm     51 % 0 in
01:44 66.7 °F 49 °F 29.82 in Calm     53 % 0 in
01:49 66.6 °F 48.4 °F 29.82 in Calm     52 % 0 in
01:54 66.4 °F 47.7 °F 29.82 in Calm     51 % 0 in
01:59 66.4 °F 47.7 °F 29.81 in NNW 2 mph 0.2 mph 51 % 0 in
02:04 66.4 °F 48.2 °F 29.81 in North 3.5 mph 0.3 mph 52 % 0 in
02:09 66.4 °F 47.7 °F 29.81 in NNW 3 mph 1.5 mph 51 % 0 in
02:14 66.5 °F 47.3 °F 29.81 in NNW 2.3 mph 1 mph 50 % 0 in
02:19 66.8 °F 47 °F 29.81 in NNW 2.3 mph 1.8 mph 49 % 0 in
02:24 67.5 °F 46.6 °F 29.81 in NNW 3.5 mph 1.9 mph 47 % 0 in
02:29 69 °F 45.6 °F 29.80 in NNW 3.5 mph 3.3 mph 43 % 0 in
02:34 71 °F 46.1 °F 29.80 in NNW 3.5 mph 2.2 mph 41 % 0 in
02:39 73.3 °F 46.2 °F 29.80 in NNW 3.5 mph 2 mph 38 % 0 in
02:44 74.8 °F 46.1 °F 29.80 in North 3.5 mph 1.8 mph 36 % 0 in
02:49 75.5 °F 45.9 °F 29.80 in North 4.6 mph 2.5 mph 35 % 0 in
02:54 75.9 °F 46.3 °F 29.80 in NNW 3.5 mph 2.3 mph 35 % 0 in
02:59 76.2 °F 45.8 °F 29.80 in NNW 3.5 mph 2.2 mph 34 % 0 in
03:04 76.3 °F 45.9 °F 29.80 in North 4.6 mph 3.2 mph 34 % 0 in
03:09 76.8 °F 46.3 °F 29.80 in North 6.9 mph 4.8 mph 34 % 0 in
03:14 77.4 °F 46 °F 29.80 in North 5.8 mph 3.3 mph 33 % 0 in
03:19 77.6 °F 46.2 °F 29.80 in NNW 7 mph 4.5 mph 33 % 0 in
03:24 77.8 °F 46.4 °F 29.80 in NNW 5.8 mph 3.1 mph 33 % 0 in
03:29 77.8 °F 46.4 °F 29.80 in North 8.1 mph 4.6 mph 33 % 0 in
03:33 78 °F 46.6 °F 29.80 in NNW 9.2 mph 4.2 mph 33 % 0 in
03:39 77.8 °F 46.4 °F 29.80 in NNW 5.8 mph 3.7 mph 33 % 0 in
03:44 77.6 °F 46.2 °F 29.80 in NNW 5.8 mph 3.8 mph 33 % 0 in
03:49 77.4 °F 46.8 °F 29.80 in NNW 6.9 mph 3.7 mph 34 % 0 in
03:54 77.2 °F 46.7 °F 29.80 in NNW 4.6 mph 2.5 mph 34 % 0 in
03:59 76.9 °F 46.4 °F 29.80 in NNW 4.6 mph 3.1 mph 34 % 0 in
04:04 76.6 °F 46.9 °F 29.80 in NNW 6.9 mph 4 mph 35 % 0 in
04:09 76.2 °F 46.5 °F 29.80 in NNW 4.6 mph 2.9 mph 35 % 0 in
04:14 75.9 °F 47 °F 29.81 in North 3.5 mph 2.4 mph 36 % 0 in
04:19 75.6 °F 46.8 °F 29.81 in North 3.5 mph 2.3 mph 36 % 0 in
04:24 75.2 °F 47.1 °F 29.81 in North 3.5 mph 2.5 mph 37 % 0 in
04:29 75 °F 47 °F 29.81 in NNW 6 mph 2.5 mph 37 % 0 in
04:34 74.8 °F 46.8 °F 29.82 in North 4 mph 2.6 mph 37 % 0 in
04:39 74.8 °F 46.8 °F 29.82 in NNW 3.5 mph 2.8 mph 37 % 0 in
04:44 74.9 °F 46.9 °F 29.82 in NNW 5 mph 3.2 mph 37 % 0 in
04:49 74.9 °F 47.6 °F 29.82 in NNW 3.5 mph 2.8 mph 38 % 0 in
04:54 74.9 °F 47.6 °F 29.83 in NNW 3.5 mph 1.9 mph 38 % 0 in
04:59 75 °F 47.7 °F 29.83 in NNW 3.5 mph 1.6 mph 38 % 0 in
05:04 74.9 °F 47.6 °F 29.83 in NNW 2.3 mph 1.2 mph 38 % 0 in
05:09 74.7 °F 48.1 °F 29.83 in NNW 2.3 mph 1.6 mph 39 % 0 in
05:14 74.7 °F 48.1 °F 29.83 in NNW 3.5 mph 2.8 mph 39 % 0 in
05:19 74.7 °F 48.1 °F 29.83 in NNW 3.5 mph 3.3 mph 39 % 0 in
05:24 75 °F 48.4 °F 29.83 in North 5 mph 3 mph 39 % 0 in
05:29 75.2 °F 48.5 °F 29.83 in NNW 5.8 mph 6 mph 39 % 0 in
05:34 75.6 °F 48.9 °F 29.83 in NNW 9.2 mph 6.1 mph 39 % 0 in
05:39 76.3 °F 48.8 °F 29.84 in NNW 8.1 mph 3.4 mph 38 % 0 in
05:44 76.7 °F 48.5 °F 29.84 in North 8 mph 5.5 mph 37 % 0 in
05:49 77 °F 48.7 °F 29.84 in North 11.5 mph 5.8 mph 37 % 0 in
05:54 77.5 °F 48.4 °F 29.83 in North 9.2 mph 6.2 mph 36 % 0 in
05:59 77.8 °F 48.7 °F 29.84 in North 9.2 mph 4.8 mph 36 % 0 in
06:04 78 °F 48.9 °F 29.83 in North 10.4 mph 4.9 mph 36 % 0 in
06:09 78.1 °F 49 °F 29.83 in North 11.5 mph 5.7 mph 36 % 0 in
06:14 78.1 °F 49 °F 29.84 in North 11.5 mph 6.5 mph 36 % 0 in
06:19 78.1 °F 49 °F 29.84 in North 10 mph 6.6 mph 36 % 0 in
06:24 78.1 °F 49 °F 29.84 in North 11.5 mph 5.8 mph 36 % 0 in
06:29 78.1 °F 49 °F 29.84 in North 7 mph 6.3 mph 36 % 0 in
06:34 78 °F 48.9 °F 29.84 in NNE 6.9 mph 4.9 mph 36 % 0 in
06:39 77.9 °F 48.8 °F 29.84 in NNE 7 mph 6 mph 36 % 0 in
06:44 78.1 °F 49 °F 29.84 in North 11.5 mph 6.1 mph 36 % 0 in
06:49 78.3 °F 49.1 °F 29.84 in North 11.5 mph 6.4 mph 36 % 0 in
06:54 78.5 °F 49.3 °F 29.84 in North 10.4 mph 6 mph 36 % 0 in
06:59 78.8 °F 48.8 °F 29.84 in North 7 mph 7.5 mph 35 % 0 in
07:04 79.1 °F 49.1 °F 29.84 in North 10.4 mph 6.9 mph 35 % 0 in
07:09 79.3 °F 49.3 °F 29.84 in NNE 11.5 mph 10.1 mph 35 % 0 in
07:14 79.7 °F 49.6 °F 29.84 in North 11.5 mph 7.3 mph 35 % 0 in
07:19 80 °F 49.1 °F 29.84 in NNE 13.8 mph 7.3 mph 34 % 0 in
07:24 80.4 °F 49.5 °F 29.84 in North 17.3 mph 12.9 mph 34 % 0 in
07:29 80.7 °F 49.7 °F 29.85 in North 12.7 mph 7.7 mph 34 % 0 in
07:34 81.1 °F 49.3 °F 29.85 in North 11 mph 11.2 mph 33 % 0 in
07:39 81.5 °F 49.6 °F 29.85 in North 11 mph 9 mph 33 % 0 in
07:44 81.7 °F 49.8 °F 29.85 in North 15 mph 10.2 mph 33 % 0 in
07:49 81.9 °F 49.1 °F 29.85 in NNE 11.5 mph 10.6 mph 32 % 0 in
07:54 82.4 °F 49.6 °F 29.85 in North 12.7 mph 8.1 mph 32 % 0 in
07:59 83.1 °F 50.2 °F 29.85 in NNW 17.3 mph 6.5 mph 32 % 0 in
08:02 83.4 °F 49.6 °F 29.85 in NNE 12.7 mph 6.9 mph 31 % 0 in
08:10 83.4 °F 49.6 °F 29.85 in NNE 12.7 mph 6.6 mph 31 % 0 in
08:19 83.8 °F 49.1 °F 29.86 in NNW 12 mph 6.8 mph 30 % 0 in
08:24 83.7 °F 49 °F 29.86 in NNW 19.6 mph 10.9 mph 30 % 0 in
08:29 83.9 °F 50 °F 29.86 in North 15 mph 6.1 mph 31 % 0 in
08:34 84.2 °F 49.4 °F 29.86 in NNW 15 mph 7.7 mph 30 % 0 in
08:39 84.7 °F 49.8 °F 29.86 in North 17.3 mph 9.8 mph 30 % 0 in
08:44 85 °F 50.1 °F 29.86 in North 11.5 mph 11.5 mph 30 % 0 in
08:49 85.5 °F 49.6 °F 29.86 in North 18.4 mph 12.3 mph 29 % 0 in
08:54 85.6 °F 49.7 °F 29.86 in NNW 10.4 mph 6 mph 29 % 0 in
08:59 85.3 °F 49.4 °F 29.86 in North 11 mph 7.4 mph 29 % 0 in
09:04 85.8 °F 49.9 °F 29.86 in NNW 11.5 mph 6.6 mph 29 % 0 in
09:09 86.8 °F 50.7 °F 29.86 in NNW 9.2 mph 9 mph 29 % 0 in
09:14 86.4 °F 49.4 °F 29.86 in NNW 23 mph 11.5 mph 28 % 0 in
09:19 86.4 °F 50.4 °F 29.85 in North 11.5 mph 6.6 mph 29 % 0 in
09:24 87.1 °F 50 °F 29.85 in North 17.3 mph 11.4 mph 28 % 0 in
09:29 87.3 °F 50.2 °F 29.85 in NNE 18.4 mph 13.9 mph 28 % 0 in
09:34 87.8 °F 50.6 °F 29.85 in North 21.9 mph 13.3 mph 28 % 0 in
09:39 88.9 °F 50.6 °F 29.84 in NNW 28.8 mph 12.1 mph 27 % 0 in
09:44 89.7 °F 50.3 °F 29.85 in NNW 26.5 mph 12.6 mph 26 % 0 in
09:49 89.8 °F 50.3 °F 29.85 in NNW 20.7 mph 11.5 mph 26 % 0 in
09:54 89.3 °F 49.9 °F 29.85 in North 27 mph 13.5 mph 26 % 0 in
09:59 88.6 °F 49.3 °F 29.85 in North 21.9 mph 16.7 mph 26 % 0 in
10:04 88.5 °F 50.3 °F 29.85 in NNW 19.6 mph 12.3 mph 27 % 0 in
10:09 89.4 °F 51 °F 29.84 in NW 17.3 mph 14.4 mph 27 % 0 in
10:14 90 °F 50.5 °F 29.84 in NW 13.8 mph 9.8 mph 26 % 0 in
10:19 90.6 °F 51 °F 29.84 in North 24.2 mph 14.5 mph 26 % 0 in
10:24 91.1 °F 50.4 °F 29.83 in NNW 18.4 mph 12.7 mph 25 % 0 in
10:29 91.9 °F 51.1 °F 29.83 in North 22 mph 17.7 mph 25 % 0 in
10:34 91.6 °F 49.7 °F 29.84 in NW 19.6 mph 14.1 mph 24 % 0 in
10:39 91.1 °F 50.4 °F 29.84 in NNW 17 mph 12.9 mph 25 % 0 in
10:44 91.4 °F 50.6 °F 29.84 in North 19 mph 11.2 mph 25 % 0 in
10:49 91.6 °F 49.7 °F 29.83 in NNW 19.6 mph 12 mph 24 % 0 in
10:54 92.6 °F 49.4 °F 29.83 in NNW 24.2 mph 17.9 mph 23 % 0 in
10:59 92.5 °F 50.5 °F 29.83 in NW 24 mph 12.8 mph 24 % 0 in
11:04 92.6 °F 49.4 °F 29.83 in NNW 18.4 mph 13.7 mph 23 % 0 in
11:09 93 °F 49.7 °F 29.83 in NW 15 mph 10.4 mph 23 % 0 in
11:14 93.1 °F 48.6 °F 29.83 in NNW 21.9 mph 13.9 mph 22 % 0 in
11:19 92.7 °F 48.3 °F 29.82 in NNW 18.4 mph 8.5 mph 22 % 0 in
11:24 93.4 °F 48.9 °F 29.82 in NNW 19.6 mph 15.2 mph 22 % 0 in
11:29 93.3 °F 48.8 °F 29.82 in NNW 21.9 mph 12 mph 22 % 0 in
11:34 94.1 °F 49.4 °F 29.82 in North 20.7 mph 10.3 mph 22 % 0 in
11:39 95 °F 50.2 °F 29.82 in NW 11.5 mph 7.3 mph 22 % 0 in
11:44 95.3 °F 47.9 °F 29.82 in NW 19 mph 11.6 mph 20 % 0 in
11:49 95.3 °F 47.9 °F 29.81 in NNW 19.6 mph 15.1 mph 20 % 0 in
11:54 95.6 °F 48.1 °F 29.81 in NNW 20.7 mph 10.7 mph 20 % 0 in
11:59 95.8 °F 48.3 °F 29.81 in North 18.4 mph 11.7 mph 20 % 0 in
12:04 95.7 °F 46.8 °F 29.80 in WNW 25.3 mph 19.1 mph 19 % 0 in
12:09 96 °F 48.5 °F 29.80 in North 17.3 mph 9.9 mph 20 % 0 in
12:14 95.5 °F 48 °F 29.80 in North 20.7 mph 12.6 mph 20 % 0 in
12:19 95.5 °F 48 °F 29.80 in NW 18.4 mph 11.3 mph 20 % 0 in
12:24 96.3 °F 47.3 °F 29.80 in North 19.6 mph 13.3 mph 19 % 0 in
12:29 97.7 °F 47 °F 29.79 in NW 21 mph 15.2 mph 18 % 0 in
12:34 98 °F 47.3 °F 29.79 in North 18.4 mph 12 mph 18 % 0 in
12:39 97.7 °F 47 °F 29.79 in WNW 17.3 mph 13.2 mph 18 % 0 in
12:44 97.6 °F 47 °F 29.79 in NW 29.9 mph 19.4 mph 18 % 0 in
12:49 98.2 °F 47.4 °F 29.79 in NW 19.6 mph 12.1 mph 18 % 0 in
12:54 97.9 °F 45.7 °F 29.79 in NW 20 mph 13.9 mph 17 % 0 in
12:59 96.8 °F 46.3 °F 29.79 in North 23 mph 9.9 mph 18 % 0 in
13:04 96.9 °F 46.4 °F 29.78 in WNW 15 mph 8.7 mph 18 % 0 in
13:09 97.6 °F 47 °F 29.78 in NNW 19.6 mph 7.4 mph 18 % 0 in
13:14 97.8 °F 45.6 °F 29.78 in North 19.6 mph 13.7 mph 17 % 0 in
13:19 97.6 °F 45.4 °F 29.78 in North 15 mph 10.5 mph 17 % 0 in
13:24 97.5 °F 43.8 °F 29.78 in WNW 22 mph 15.7 mph 16 % 0 in
13:29 97.3 °F 45.2 °F 29.77 in North 20 mph 14.2 mph 17 % 0 in
13:34 97.2 °F 41.8 °F 29.77 in North 23 mph 13.9 mph 15 % 0 in
13:39 97 °F 43.4 °F 29.77 in NNW 23 mph 14.1 mph 16 % 0 in
13:44 97.1 °F 43.4 °F 29.77 in North 21.9 mph 15.6 mph 16 % 0 in
13:49 97.3 °F 43.6 °F 29.77 in North 11.5 mph 7.5 mph 16 % 0 in
13:54 98.1 °F 44.2 °F 29.77 in NW 17.3 mph 14.6 mph 16 % 0 in
13:59 98 °F 44.2 °F 29.77 in NNW 18.4 mph 11 mph 16 % 0 in
14:04 98 °F 44.2 °F 29.76 in NW 19 mph 10.7 mph 16 % 0 in
14:09 97.7 °F 43.9 °F 29.76 in NNW 24.2 mph 13.1 mph 16 % 0 in
14:14 97.5 °F 43.8 °F 29.76 in NW 12.7 mph 10.4 mph 16 % 0 in
14:19 97.4 °F 42 °F 29.76 in NW 21 mph 15.3 mph 15 % 0 in
14:24 97.2 °F 41.8 °F 29.76 in NW 25.3 mph 11.2 mph 15 % 0 in
14:29 97.1 °F 41.8 °F 29.76 in WNW 13 mph 10.7 mph 15 % 0 in
14:34 96.9 °F 41.6 °F 29.76 in NNW 20.7 mph 10.1 mph 15 % 0 in
14:39 96.8 °F 43.2 °F 29.76 in NW 17.3 mph 7.8 mph 16 % 0 in
14:44 96.5 °F 43 °F 29.76 in NNW 15 mph 10 mph 16 % 0 in
14:49 97.2 °F 43.5 °F 29.76 in NW 15 mph 12.9 mph 16 % 0 in
14:54 97.4 °F 43.7 °F 29.76 in North 25.3 mph 13.5 mph 16 % 0 in
14:59 97 °F 43.4 °F 29.76 in NW 19.6 mph 16.1 mph 16 % 0 in
15:04 96.5 °F 43 °F 29.76 in North 16.1 mph 11.2 mph 16 % 0 in
15:09 96.4 °F 42.9 °F 29.76 in North 15 mph 8.5 mph 16 % 0 in
15:14 96.4 °F 42.9 °F 29.76 in North 18.4 mph 15.5 mph 16 % 0 in
15:19 96.7 °F 43.1 °F 29.76 in NW 20.7 mph 12.2 mph 16 % 0 in
15:24 97.7 °F 43.9 °F 29.75 in NW 19.6 mph 12.7 mph 16 % 0 in
15:29 98.4 °F 42.8 °F 29.75 in North 19.6 mph 11.7 mph 15 % 0 in
15:34 98 °F 42.5 °F 29.75 in North 20.7 mph 15.2 mph 15 % 0 in
15:39 99 °F 41.5 °F 29.75 in NW 20.7 mph 12.3 mph 14 % 0 in
15:44 99.4 °F 41.8 °F 29.75 in North 18.4 mph 11.3 mph 14 % 0 in
15:49 98.7 °F 43 °F 29.74 in NNW 21.9 mph 13.7 mph 15 % 0 in
15:54 98.6 °F 43 °F 29.74 in NW 11.5 mph 6.5 mph 15 % 0 in
15:59 98.3 °F 40.9 °F 29.74 in NNW 18.4 mph 12.6 mph 14 % 0 in
16:04 98.1 °F 40.8 °F 29.74 in WNW 18.4 mph 12.6 mph 14 % 0 in
16:09 98.4 °F 41 °F 29.74 in NNW 20.7 mph 15.2 mph 14 % 0 in
16:14 97.9 °F 42.4 °F 29.74 in North 17.3 mph 9.7 mph 15 % 0 in
16:19 98.6 °F 43 °F 29.74 in NW 18.4 mph 13.9 mph 15 % 0 in
16:24 99.1 °F 43.3 °F 29.73 in North 16.1 mph 8.8 mph 15 % 0 in
16:29 99.7 °F 42 °F 29.73 in NNW 16.1 mph 10.7 mph 14 % 0 in
16:34 99.4 °F 43.6 °F 29.73 in North 20.7 mph 14.9 mph 15 % 0 in
16:39 98.2 °F 42.6 °F 29.73 in NNW 19.6 mph 9.5 mph 15 % 0 in
16:44 98 °F 44.2 °F 29.73 in NW 19.6 mph 11.9 mph 16 % 0 in
16:49 97.5 °F 43.8 °F 29.73 in NW 19.6 mph 13.8 mph 16 % 0 in
16:54 97.5 °F 43.8 °F 29.73 in NW 12.7 mph 6.9 mph 16 % 0 in
16:59 97.6 °F 43.8 °F 29.72 in NNW 11.5 mph 9.3 mph 16 % 0 in
17:04 97.6 °F 43.8 °F 29.72 in NW 13.8 mph 8.6 mph 16 % 0 in
17:09 97.3 °F 43.6 °F 29.72 in WNW 11.5 mph 7.9 mph 16 % 0 in
17:14 97 °F 43.4 °F 29.72 in NW 11.5 mph 7.1 mph 16 % 0 in
17:19 96.8 °F 44.8 °F 29.72 in NW 11.5 mph 7.5 mph 17 % 0 in
17:24 96.5 °F 44.6 °F 29.72 in NNW 11.5 mph 7.3 mph 17 % 0 in
17:29 96.1 °F 44.2 °F 29.73 in West 21.9 mph 17.7 mph 17 % 0 in
17:34 95.9 °F 44.1 °F 29.72 in North 15 mph 12.1 mph 17 % 0 in
17:39 96.1 °F 44.2 °F 29.72 in NW 15 mph 9 mph 17 % 0 in
17:44 96.2 °F 44.3 °F 29.72 in North 13.8 mph 6.6 mph 17 % 0 in
17:49 95.7 °F 45.4 °F 29.73 in North 26.5 mph 15.4 mph 18 % 0 in
17:54 95.2 °F 43.5 °F 29.72 in North 17.3 mph 13.9 mph 17 % 0 in
17:59 94.9 °F 43.3 °F 29.72 in NNE 18.4 mph 9.8 mph 17 % 0 in
18:04 95.1 °F 41.9 °F 29.72 in NW 18.4 mph 10 mph 16 % 0 in
18:09 94.9 °F 43.3 °F 29.72 in NNW 9.2 mph 8.7 mph 17 % 0 in
18:14 94.9 °F 43.3 °F 29.72 in NNW 11.5 mph 7.8 mph 17 % 0 in
18:19 94.8 °F 43.2 °F 29.72 in North 12.7 mph 7.4 mph 17 % 0 in
18:24 94.8 °F 43.2 °F 29.72 in North 9.2 mph 4.9 mph 17 % 0 in
18:29 94.7 °F 43.1 °F 29.72 in NNW 11.5 mph 7.7 mph 17 % 0 in
18:34 94.6 °F 44.5 °F 29.73 in NNW 8.1 mph 6.1 mph 18 % 0 in
18:39 94 °F 45.5 °F 29.73 in NNW 15 mph 8.4 mph 19 % 0 in
18:44 93.9 °F 45.4 °F 29.74 in North 16.1 mph 7.7 mph 19 % 0 in
18:49 93.5 °F 45.1 °F 29.74 in NNW 17.3 mph 8.5 mph 19 % 0 in
18:54 92.7 °F 50.6 °F 29.75 in North 12.7 mph 7.3 mph 24 % 0 in
18:59 90.8 °F 50.1 °F 29.76 in WNW 22 mph 14.1 mph 25 % 0 in
19:04 88.5 °F 51.2 °F 29.78 in NW 29.9 mph 17.8 mph 28 % 0 in
19:09 88.2 °F 49 °F 29.77 in WNW 21.9 mph 12.2 mph 26 % 0 in
19:14 88.6 °F 49.3 °F 29.77 in NNW 11.5 mph 7.5 mph 26 % 0 in
19:19 89.6 °F 46.9 °F 29.77 in NNW 11.5 mph 8.9 mph 23 % 0 in
19:24 90.2 °F 47.4 °F 29.77 in NNW 15 mph 8 mph 23 % 0 in
19:29 90.3 °F 47.5 °F 29.77 in NNW 8.1 mph 4.4 mph 23 % 0 in
19:34 90.3 °F 46.3 °F 29.77 in North 4.6 mph 2.4 mph 22 % 0 in
19:39 90.1 °F 47.3 °F 29.77 in North 11.5 mph 7 mph 23 % 0 in
19:44 89.9 °F 47.1 °F 29.78 in North 5.8 mph 2.9 mph 23 % 0 in
19:49 89.6 °F 48 °F 29.77 in North 5.8 mph 2.5 mph 24 % 0 in
19:54 89.3 °F 47.8 °F 29.77 in North 4.6 mph 1.8 mph 24 % 0 in
19:59 89 °F 47.5 °F 29.77 in North 2.3 mph 1.9 mph 24 % 0 in
20:04 88.6 °F 48.3 °F 29.77 in North 3.5 mph 2.4 mph 25 % 0 in
20:09 88.2 °F 47.9 °F 29.77 in North 4.6 mph 3.4 mph 25 % 0 in
20:14 88.2 °F 47.9 °F 29.77 in North 3.5 mph 0.9 mph 25 % 0 in
20:19 88 °F 47.8 °F 29.77 in North 3.5 mph 2.2 mph 25 % 0 in
20:24 87.7 °F 48.6 °F 29.78 in North 4 mph 3.2 mph 26 % 0 in
20:29 87.3 °F 49.2 °F 29.78 in North 3.5 mph 2.8 mph 27 % 0 in
20:34 86.9 °F 48.9 °F 29.78 in North 3.5 mph 1.8 mph 27 % 0 in
20:39 86.4 °F 49.4 °F 29.79 in North 3.5 mph 2.2 mph 28 % 0 in
20:44 85.9 °F 49 °F 29.79 in North 3.5 mph 3.3 mph 28 % 0 in
20:49 85.8 °F 48.9 °F 29.79 in North 3.5 mph 2.2 mph 28 % 0 in
20:54 85.7 °F 48.8 °F 29.79 in North 2.3 mph 2.1 mph 28 % 0 in
20:59 85.6 °F 48.8 °F 29.79 in North 4.6 mph 1.9 mph 28 % 0 in
21:04 85.4 °F 49.5 °F 29.79 in North 1.2 mph 0.7 mph 29 % 0 in
21:09 84.7 °F 48.9 °F 29.80 in NNW 6.9 mph 4 mph 29 % 0 in
21:14 84.4 °F 48.7 °F 29.80 in NNW 2.3 mph 1.9 mph 29 % 0 in
21:19 84.2 °F 49.4 °F 29.80 in NNW 3.5 mph 1.3 mph 30 % 0 in
21:24 83.7 °F 49.9 °F 29.80 in West 9.2 mph 4.3 mph 31 % 0 in
21:29 83.5 °F 49.7 °F 29.81 in North 5 mph 3.7 mph 31 % 0 in
21:34 83 °F 50.1 °F 29.81 in WSW 8.1 mph 6.2 mph 32 % 0 in
21:39 82.5 °F 50.5 °F 29.82 in SW 5.8 mph 4.2 mph 33 % 0 in
21:44 82.1 °F 50.9 °F 29.82 in SW 6 mph 3.6 mph 34 % 0 in
21:49 81.8 °F 51.5 °F 29.82 in SW 4.6 mph 3.6 mph 35 % 0 in
21:54 81.3 °F 51 °F 29.84 in South 8.1 mph 8.5 mph 35 % 0 in
21:59 80.7 °F 52 °F 29.83 in South 6 mph 5.4 mph 37 % 0 in
22:04 79.8 °F 51.9 °F 29.84 in SSW 8.1 mph 7.4 mph 38 % 0 in
22:09 79.1 °F 52 °F 29.83 in SSW 9.2 mph 4.5 mph 39 % 0 in
22:14 78.5 °F 51.5 °F 29.84 in SSW 8.1 mph 6.6 mph 39 % 0 in
22:19 77.9 °F 51.6 °F 29.84 in SSW 10.4 mph 3.3 mph 40 % 0 in
22:24 77.4 °F 51.9 °F 29.86 in SSW 10 mph 7.6 mph 41 % 0 in
22:29 77 °F 51.5 °F 29.86 in SSW 8.1 mph 2.9 mph 41 % 0 in
22:34 76.7 °F 51.9 °F 29.86 in SSW 12 mph 4.9 mph 42 % 0 in
22:39 76.5 °F 51.7 °F 29.86 in SSW 9.2 mph 6.7 mph 42 % 0 in
22:44 76.4 °F 51.6 °F 29.85 in SSW 3.5 mph 2.6 mph 42 % 0 in
22:49 76.4 °F 51.6 °F 29.85 in SSW 4.6 mph 2.3 mph 42 % 0 in
22:54 76.1 °F 52 °F 29.85 in SSW 4.6 mph 3.6 mph 43 % 0 in
22:59 75.9 °F 52.4 °F 29.86 in SSW 3.5 mph 2.1 mph 44 % 0 in
23:04 75.6 °F 52.1 °F 29.86 in SSW 3.5 mph 1.5 mph 44 % 0 in
23:09 75.2 °F 51.8 °F 29.86 in SSW 3.5 mph 2.4 mph 44 % 0 in
23:14 74.8 °F 52 °F 29.85 in SSW 3.5 mph 3.5 mph 45 % 0 in
23:19 74.6 °F 51.9 °F 29.86 in SSW 3.5 mph 0.5 mph 45 % 0 in
23:24 74.5 °F 52.4 °F 29.85 in SSW 2.3 mph 1.6 mph 46 % 0 in
23:29 74.2 °F 52.7 °F 29.85 in SSW 1.2 mph   47 % 0 in
23:34 73.9 °F 52.4 °F 29.85 in SSW 2.3 mph 0.3 mph 47 % 0 in
23:39 73.7 °F 52.8 °F 29.84 in Calm     48 % 0 in
23:44 73.4 °F 53.1 °F 29.85 in Calm     49 % 0 in
23:49 73 °F 52.7 °F 29.85 in SSW 3.5 mph 3 mph 49 % 0 in
23:54 73 °F 52.7 °F 29.85 in SSW 4 mph 3.6 mph 49 % 0 in
23:59 73.1 °F 53.4 °F 29.85 in SSW 2.3 mph 1.9 mph 50 % 0 in
Ararat Weather
Compliments of Weather Underground - 2.25 mb
Click here to send mail.


ABOUT

Live weather data from Ararat, Victoria, Australia, 3377
Data uploaded from Cumulus every 5 minutes to Weather Underground.
This site then downloads the raw data for formatting and display.
Metric and imperial data can be displayed. Graphs and historical data available.
Includes Sun and Moon times and rain image live from BOM.

Check out Ararat Weather on Facebook, Twitter and Google +

Help support ongoing costs by checking out the ads





Follow @AraratWeather